sensor_id;sensor_type;location;lat;lon;timestamp;pressure;altitude;pressure_sealevel;temperature;humidity
21096;BME280;10706;49.036;12.112;2023-09-18T00:00:24;97373.88;;;17.38;89.12
21096;BME280;10706;49.036;12.112;2023-09-18T00:02:50;97368.69;;;17.42;88.91
21096;BME280;10706;49.036;12.112;2023-09-18T00:05:16;97370.13;;;17.34;89.12
21096;BME280;10706;49.036;12.112;2023-09-18T00:07:43;97366.34;;;17.35;88.94
21096;BME280;10706;49.036;12.112;2023-09-18T00:10:12;97369.03;;;17.35;89.04
21096;BME280;10706;49.036;12.112;2023-09-18T00:12:38;97365.59;;;17.29;89.46
21096;BME280;10706;49.036;12.112;2023-09-18T00:15:05;97364.56;;;17.25;89.63
21096;BME280;10706;49.036;12.112;2023-09-18T00:17:32;97363.41;;;17.32;89.24
21096;BME280;10706;49.036;12.112;2023-09-18T00:19:57;97356.19;;;17.27;89.37
21096;BME280;10706;49.036;12.112;2023-09-18T00:22:23;97355.09;;;17.28;89.42
21096;BME280;10706;49.036;12.112;2023-09-18T00:24:50;97349.47;;;17.24;89.99
21096;BME280;10706;49.036;12.112;2023-09-18T00:27:15;97349.16;;;17.26;90.10
21096;BME280;10706;49.036;12.112;2023-09-18T00:29:42;97343.31;;;17.19;90.41
21096;BME280;10706;49.036;12.112;2023-09-18T00:32:08;97341.63;;;17.23;90.06
21096;BME280;10706;49.036;12.112;2023-09-18T00:34:34;97333.25;;;17.24;89.94
21096;BME280;10706;49.036;12.112;2023-09-18T00:37:00;97330.78;;;17.28;90.10
21096;BME280;10706;49.036;12.112;2023-09-18T00:39:26;97329.50;;;17.25;90.36
21096;BME280;10706;49.036;12.112;2023-09-18T00:41:52;97322.94;;;17.32;90.91
21096;BME280;10706;49.036;12.112;2023-09-18T00:44:24;97316.13;;;17.34;91.33
21096;BME280;10706;49.036;12.112;2023-09-18T00:46:52;97315.28;;;17.39;91.21
21096;BME280;10706;49.036;12.112;2023-09-18T00:49:19;97314.72;;;17.42;91.40
21096;BME280;10706;49.036;12.112;2023-09-18T00:51:45;97315.97;;;17.49;91.78
21096;BME280;10706;49.036;12.112;2023-09-18T00:54:14;97307.50;;;17.56;91.55
21096;BME280;10706;49.036;12.112;2023-09-18T00:56:41;97305.69;;;17.71;90.96
21096;BME280;10706;49.036;12.112;2023-09-18T00:59:07;97300.78;;;17.73;90.65
21096;BME280;10706;49.036;12.112;2023-09-18T01:01:34;97299.31;;;17.80;90.53
21096;BME280;10706;49.036;12.112;2023-09-18T01:03:59;97297.38;;;17.86;90.41
21096;BME280;10706;49.036;12.112;2023-09-18T01:06:25;97286.78;;;17.90;90.41
21096;BME280;10706;49.036;12.112;2023-09-18T01:08:56;97292.34;;;17.98;89.80
21096;BME280;10706;49.036;12.112;2023-09-18T01:11:26;97286.13;;;17.98;89.10
21096;BME280;10706;49.036;12.112;2023-09-18T01:14:13;97288.66;;;18.08;88.25
21096;BME280;10706;49.036;12.112;2023-09-18T01:17:06;97290.91;;;18.20;87.85
21096;BME280;10706;49.036;12.112;2023-09-18T01:22:17;97295.72;;;18.23;86.60
21096;BME280;10706;49.036;12.112;2023-09-18T01:24:45;97290.94;;;18.34;85.84
21096;BME280;10706;49.036;12.112;2023-09-18T01:27:15;97290.28;;;18.56;85.16
21096;BME280;10706;49.036;12.112;2023-09-18T01:29:46;97286.66;;;18.46;84.43
21096;BME280;10706;49.036;12.112;2023-09-18T01:32:12;97284.59;;;18.57;84.69
21096;BME280;10706;49.036;12.112;2023-09-18T01:34:51;97289.69;;;18.59;84.81
21096;BME280;10706;49.036;12.112;2023-09-18T01:37:21;97279.28;;;18.66;84.32
21096;BME280;10706;49.036;12.112;2023-09-18T01:39:50;97273.59;;;18.68;84.22
21096;BME280;10706;49.036;12.112;2023-09-18T01:42:17;97273.69;;;18.62;83.96
21096;BME280;10706;49.036;12.112;2023-09-18T01:44:45;97265.88;;;18.61;83.91
21096;BME280;10706;49.036;12.112;2023-09-18T01:47:19;97264.94;;;18.65;83.44
21096;BME280;10706;49.036;12.112;2023-09-18T01:49:45;97261.16;;;18.67;83.91
21096;BME280;10706;49.036;12.112;2023-09-18T01:52:12;97253.75;;;18.58;84.05
21096;BME280;10706;49.036;12.112;2023-09-18T01:54:37;97254.03;;;18.57;84.13
21096;BME280;10706;49.036;12.112;2023-09-18T01:57:04;97257.03;;;18.55;83.88
21096;BME280;10706;49.036;12.112;2023-09-18T01:59:30;97255.25;;;18.64;83.77
21096;BME280;10706;49.036;12.112;2023-09-18T02:01:56;97256.34;;;18.63;83.04
21096;BME280;10706;49.036;12.112;2023-09-18T02:04:22;97243.41;;;18.46;84.29
21096;BME280;10706;49.036;12.112;2023-09-18T02:06:50;97250.53;;;18.56;83.73
21096;BME280;10706;49.036;12.112;2023-09-18T02:09:17;97239.72;;;18.56;83.17
21096;BME280;10706;49.036;12.112;2023-09-18T02:11:47;97233.41;;;18.47;83.24
21096;BME280;10706;49.036;12.112;2023-09-18T02:14:14;97242.69;;;18.41;83.09
21096;BME280;10706;49.036;12.112;2023-09-18T02:16:41;97240.00;;;18.41;83.66
21096;BME280;10706;49.036;12.112;2023-09-18T02:19:10;97239.31;;;18.49;83.23
21096;BME280;10706;49.036;12.112;2023-09-18T02:21:37;97247.22;;;18.45;82.96
21096;BME280;10706;49.036;12.112;2023-09-18T02:24:03;97239.72;;;18.56;82.22
21096;BME280;10706;49.036;12.112;2023-09-18T02:26:30;97242.44;;;18.56;82.00
21096;BME280;10706;49.036;12.112;2023-09-18T02:28:59;97243.91;;;18.49;83.01
21096;BME280;10706;49.036;12.112;2023-09-18T02:31:25;97243.81;;;18.40;83.06
21096;BME280;10706;49.036;12.112;2023-09-18T02:33:51;97240.50;;;18.43;82.93
21096;BME280;10706;49.036;12.112;2023-09-18T02:36:21;97237.19;;;18.46;82.75
21096;BME280;10706;49.036;12.112;2023-09-18T02:38:47;97235.00;;;18.34;83.08
21096;BME280;10706;49.036;12.112;2023-09-18T02:41:12;97229.88;;;18.33;82.88
21096;BME280;10706;49.036;12.112;2023-09-18T02:43:38;97228.47;;;18.35;82.75
21096;BME280;10706;49.036;12.112;2023-09-18T02:46:05;97237.19;;;18.46;82.58
21096;BME280;10706;49.036;12.112;2023-09-18T02:48:31;97238.63;;;18.43;82.30
21096;BME280;10706;49.036;12.112;2023-09-18T02:50:59;97242.03;;;18.49;82.14
21096;BME280;10706;49.036;12.112;2023-09-18T02:53:25;97241.59;;;18.42;82.36
21096;BME280;10706;49.036;12.112;2023-09-18T02:55:53;97239.31;;;18.49;81.93
21096;BME280;10706;49.036;12.112;2023-09-18T02:58:20;97245.91;;;18.43;82.52
21096;BME280;10706;49.036;12.112;2023-09-18T03:00:48;97235.78;;;18.35;82.21
21096;BME280;10706;49.036;12.112;2023-09-18T03:03:15;97228.66;;;18.25;83.11
21096;BME280;10706;49.036;12.112;2023-09-18T03:05:42;97225.25;;;18.33;82.40
21096;BME280;10706;49.036;12.112;2023-09-18T03:08:09;97222.16;;;18.26;82.83
21096;BME280;10706;49.036;12.112;2023-09-18T03:10:41;97218.56;;;18.31;82.65
21096;BME280;10706;49.036;12.112;2023-09-18T03:13:10;97227.19;;;18.33;82.63
21096;BME280;10706;49.036;12.112;2023-09-18T03:15:36;97228.25;;;18.32;82.55
21096;BME280;10706;49.036;12.112;2023-09-18T03:18:04;97227.56;;;18.26;82.68
21096;BME280;10706;49.036;12.112;2023-09-18T03:20:31;97228.22;;;18.04;83.29
21096;BME280;10706;49.036;12.112;2023-09-18T03:22:59;97224.47;;;18.19;82.92
21096;BME280;10706;49.036;12.112;2023-09-18T03:25:25;97219.84;;;18.19;82.85
21096;BME280;10706;49.036;12.112;2023-09-18T03:27:53;97224.53;;;18.14;83.11
21096;BME280;10706;49.036;12.112;2023-09-18T03:30:21;97228.94;;;18.10;83.03
21096;BME280;10706;49.036;12.112;2023-09-18T03:32:48;97228.63;;;18.11;83.30
21096;BME280;10706;49.036;12.112;2023-09-18T03:35:14;97213.66;;;18.19;82.76
21096;BME280;10706;49.036;12.112;2023-09-18T03:37:50;97210.03;;;18.23;82.11
21096;BME280;10706;49.036;12.112;2023-09-18T03:40:20;97202.72;;;18.24;82.22
21096;BME280;10706;49.036;12.112;2023-09-18T03:42:46;97199.81;;;18.20;82.39
21096;BME280;10706;49.036;12.112;2023-09-18T03:45:13;97181.50;;;18.17;82.54
21096;BME280;10706;49.036;12.112;2023-09-18T03:47:40;97182.50;;;18.21;81.84
21096;BME280;10706;49.036;12.112;2023-09-18T03:50:10;97175.41;;;18.12;82.94
21096;BME280;10706;49.036;12.112;2023-09-18T03:52:38;97167.00;;;18.13;82.72
21096;BME280;10706;49.036;12.112;2023-09-18T03:55:05;97173.38;;;18.03;82.86
21096;BME280;10706;49.036;12.112;2023-09-18T03:57:31;97176.91;;;18.04;82.72
21096;BME280;10706;49.036;12.112;2023-09-18T03:59:57;97173.00;;;18.10;82.59
21096;BME280;10706;49.036;12.112;2023-09-18T04:02:25;97181.59;;;17.98;83.01
21096;BME280;10706;49.036;12.112;2023-09-18T04:04:51;97177.91;;;18.08;82.52
21096;BME280;10706;49.036;12.112;2023-09-18T04:07:18;97180.50;;;18.13;82.37
21096;BME280;10706;49.036;12.112;2023-09-18T04:09:45;97176.19;;;18.12;82.33
21096;BME280;10706;49.036;12.112;2023-09-18T04:12:11;97162.09;;;18.15;82.13
21096;BME280;10706;49.036;12.112;2023-09-18T04:14:38;97149.38;;;18.16;82.08
21096;BME280;10706;49.036;12.112;2023-09-18T04:17:03;97143.88;;;18.21;81.71
21096;BME280;10706;49.036;12.112;2023-09-18T04:19:29;97144.69;;;18.21;81.82
21096;BME280;10706;49.036;12.112;2023-09-18T04:21:56;97136.00;;;18.24;81.75
21096;BME280;10706;49.036;12.112;2023-09-18T04:24:22;97137.88;;;18.10;82.18
21096;BME280;10706;49.036;12.112;2023-09-18T04:26:49;97155.53;;;17.88;82.83
21096;BME280;10706;49.036;12.112;2023-09-18T04:29:17;97149.97;;;18.13;82.07
21096;BME280;10706;49.036;12.112;2023-09-18T04:31:42;97144.13;;;17.92;82.78
21096;BME280;10706;49.036;12.112;2023-09-18T04:34:08;97142.78;;;18.08;82.24
21096;BME280;10706;49.036;12.112;2023-09-18T04:36:34;97128.25;;;18.18;82.64
21096;BME280;10706;49.036;12.112;2023-09-18T04:39:01;97119.25;;;18.22;82.58
21096;BME280;10706;49.036;12.112;2023-09-18T04:41:30;97117.38;;;18.23;81.85
21096;BME280;10706;49.036;12.112;2023-09-18T04:43:56;97119.47;;;18.40;81.36
21096;BME280;10706;49.036;12.112;2023-09-18T04:46:21;97125.97;;;18.39;81.40
21096;BME280;10706;49.036;12.112;2023-09-18T04:48:48;97131.75;;;18.18;81.93
21096;BME280;10706;49.036;12.112;2023-09-18T04:51:14;97137.38;;;18.36;81.45
21096;BME280;10706;49.036;12.112;2023-09-18T04:53:40;97132.97;;;18.54;80.94
21096;BME280;10706;49.036;12.112;2023-09-18T04:56:06;97127.38;;;18.36;80.89
21096;BME280;10706;49.036;12.112;2023-09-18T04:58:32;97122.88;;;18.45;81.32
21096;BME280;10706;49.036;12.112;2023-09-18T05:00:59;97128.34;;;18.54;80.48
21096;BME280;10706;49.036;12.112;2023-09-18T05:03:26;97124.66;;;18.50;80.77
21096;BME280;10706;49.036;12.112;2023-09-18T05:05:52;97116.44;;;18.55;81.11
21096;BME280;10706;49.036;12.112;2023-09-18T05:08:18;97118.53;;;18.44;81.61
21096;BME280;10706;49.036;12.112;2023-09-18T05:10:45;97109.34;;;18.32;81.62
21096;BME280;10706;49.036;12.112;2023-09-18T05:13:11;97104.25;;;18.30;81.56
21096;BME280;10706;49.036;12.112;2023-09-18T05:15:37;97104.13;;;18.49;81.44
21096;BME280;10706;49.036;12.112;2023-09-18T05:18:04;97106.44;;;18.42;81.85
21096;BME280;10706;49.036;12.112;2023-09-18T05:20:30;97112.34;;;18.44;81.35
21096;BME280;10706;49.036;12.112;2023-09-18T05:22:58;97102.31;;;18.44;81.29
21096;BME280;10706;49.036;12.112;2023-09-18T05:25:26;97099.75;;;18.39;81.55
21096;BME280;10706;49.036;12.112;2023-09-18T05:27:53;97113.56;;;18.38;81.19
21096;BME280;10706;49.036;12.112;2023-09-18T05:30:30;97126.66;;;18.44;81.56
21096;BME280;10706;49.036;12.112;2023-09-18T05:32:59;97128.88;;;18.56;80.70
21096;BME280;10706;49.036;12.112;2023-09-18T05:35:35;97128.06;;;18.70;80.48
21096;BME280;10706;49.036;12.112;2023-09-18T05:38:04;97134.16;;;18.75;79.95
21096;BME280;10706;49.036;12.112;2023-09-18T05:40:31;97136.34;;;18.87;79.61
21096;BME280;10706;49.036;12.112;2023-09-18T05:42:57;97128.84;;;18.84;79.29
21096;BME280;10706;49.036;12.112;2023-09-18T05:45:23;97112.13;;;18.82;80.02
21096;BME280;10706;49.036;12.112;2023-09-18T05:47:50;97103.09;;;18.87;80.38
21096;BME280;10706;49.036;12.112;2023-09-18T05:50:16;97098.47;;;18.87;80.20
21096;BME280;10706;49.036;12.112;2023-09-18T05:52:47;97093.84;;;19.01;79.33
21096;BME280;10706;49.036;12.112;2023-09-18T05:55:15;97102.63;;;19.07;79.48
21096;BME280;10706;49.036;12.112;2023-09-18T05:57:40;97114.22;;;18.85;79.27
21096;BME280;10706;49.036;12.112;2023-09-18T06:00:07;97119.94;;;18.83;79.95
21096;BME280;10706;49.036;12.112;2023-09-18T06:02:33;97124.84;;;19.18;78.38
21096;BME280;10706;49.036;12.112;2023-09-18T06:05:00;97129.72;;;18.93;79.51
21096;BME280;10706;49.036;12.112;2023-09-18T06:07:29;97123.41;;;18.98;78.95
21096;BME280;10706;49.036;12.112;2023-09-18T06:09:57;97119.56;;;19.13;78.33
21096;BME280;10706;49.036;12.112;2023-09-18T06:12:23;97111.19;;;19.23;78.23
21096;BME280;10706;49.036;12.112;2023-09-18T06:14:49;97108.38;;;19.28;78.22
21096;BME280;10706;49.036;12.112;2023-09-18T06:17:15;97107.88;;;19.49;77.66
21096;BME280;10706;49.036;12.112;2023-09-18T06:19:42;97106.25;;;19.02;78.54
21096;BME280;10706;49.036;12.112;2023-09-18T06:22:09;97108.06;;;19.30;78.36
21096;BME280;10706;49.036;12.112;2023-09-18T06:24:35;97114.09;;;19.49;76.98
21096;BME280;10706;49.036;12.112;2023-09-18T06:27:02;97115.72;;;19.73;76.64
21096;BME280;10706;49.036;12.112;2023-09-18T06:29:30;97107.34;;;20.32;74.87
21096;BME280;10706;49.036;12.112;2023-09-18T06:31:56;97105.81;;;20.48;74.70
21096;BME280;10706;49.036;12.112;2023-09-18T06:34:22;97094.72;;;20.76;73.23
21096;BME280;10706;49.036;12.112;2023-09-18T06:36:48;97096.63;;;20.75;72.53
21096;BME280;10706;49.036;12.112;2023-09-18T06:39:15;97094.72;;;20.67;72.17
21096;BME280;10706;49.036;12.112;2023-09-18T06:41:41;97104.78;;;21.02;71.98
21096;BME280;10706;49.036;12.112;2023-09-18T06:44:07;97104.81;;;21.10;70.05
21096;BME280;10706;49.036;12.112;2023-09-18T06:46:33;97112.94;;;21.02;70.33
21096;BME280;10706;49.036;12.112;2023-09-18T06:48:59;97110.03;;;20.63;70.96
21096;BME280;10706;49.036;12.112;2023-09-18T06:51:26;97115.66;;;20.84;70.76
21096;BME280;10706;49.036;12.112;2023-09-18T06:53:53;97122.16;;;20.83;71.17
21096;BME280;10706;49.036;12.112;2023-09-18T06:56:20;97129.56;;;21.09;71.30
21096;BME280;10706;49.036;12.112;2023-09-18T06:58:46;97128.88;;;20.77;71.59
21096;BME280;10706;49.036;12.112;2023-09-18T07:01:17;97146.78;;;20.78;71.66
21096;BME280;10706;49.036;12.112;2023-09-18T07:03:45;97151.25;;;20.91;71.20
21096;BME280;10706;49.036;12.112;2023-09-18T07:06:16;97153.00;;;20.87;72.02
21096;BME280;10706;49.036;12.112;2023-09-18T07:08:45;97151.22;;;20.83;71.33
21096;BME280;10706;49.036;12.112;2023-09-18T07:11:11;97159.69;;;20.81;71.19
21096;BME280;10706;49.036;12.112;2023-09-18T07:13:38;97165.31;;;20.13;72.73
21096;BME280;10706;49.036;12.112;2023-09-18T07:16:05;97161.50;;;20.54;73.10
21096;BME280;10706;49.036;12.112;2023-09-18T07:18:31;97169.72;;;20.72;72.67
21096;BME280;10706;49.036;12.112;2023-09-18T07:20:57;97174.59;;;20.21;73.19
21096;BME280;10706;49.036;12.112;2023-09-18T07:23:23;97180.50;;;20.23;73.14
21096;BME280;10706;49.036;12.112;2023-09-18T07:25:49;97177.66;;;20.28;73.22
21096;BME280;10706;49.036;12.112;2023-09-18T07:28:15;97168.44;;;19.98;74.24
21096;BME280;10706;49.036;12.112;2023-09-18T07:30:43;97172.38;;;20.23;73.38
21096;BME280;10706;49.036;12.112;2023-09-18T07:33:14;97175.81;;;20.37;72.67
21096;BME280;10706;49.036;12.112;2023-09-18T07:35:49;97160.44;;;20.64;71.23
21096;BME280;10706;49.036;12.112;2023-09-18T07:38:17;97147.91;;;21.03;72.16
21096;BME280;10706;49.036;12.112;2023-09-18T07:40:45;97156.41;;;21.19;70.54
21096;BME280;10706;49.036;12.112;2023-09-18T07:43:13;97159.09;;;21.28;71.14
21096;BME280;10706;49.036;12.112;2023-09-18T07:45:39;97173.97;;;21.39;69.44
21096;BME280;10706;49.036;12.112;2023-09-18T07:48:09;97166.00;;;21.51;69.60
21096;BME280;10706;49.036;12.112;2023-09-18T07:50:35;97168.50;;;21.13;70.61
21096;BME280;10706;49.036;12.112;2023-09-18T07:53:02;97160.06;;;21.32;71.45
21096;BME280;10706;49.036;12.112;2023-09-18T07:55:28;97163.91;;;21.74;70.27
21096;BME280;10706;49.036;12.112;2023-09-18T07:57:55;97163.44;;;21.81;69.20
21096;BME280;10706;49.036;12.112;2023-09-18T08:00:20;97157.31;;;21.84;68.66
21096;BME280;10706;49.036;12.112;2023-09-18T08:02:48;97165.63;;;21.88;68.43
21096;BME280;10706;49.036;12.112;2023-09-18T08:05:16;97159.50;;;22.08;67.22
21096;BME280;10706;49.036;12.112;2023-09-18T08:07:43;97172.31;;;21.99;67.78
21096;BME280;10706;49.036;12.112;2023-09-18T08:10:09;97171.75;;;21.85;67.53
21096;BME280;10706;49.036;12.112;2023-09-18T08:37:24;97170.25;;;22.82;63.56
21096;BME280;10706;49.036;12.112;2023-09-18T08:45:34;97151.00;;;23.38;62.60
21096;BME280;10706;49.036;12.112;2023-09-18T08:48:01;97144.41;;;23.60;61.63
21096;BME280;10706;49.036;12.112;2023-09-18T08:50:28;97142.03;;;23.37;60.85
21096;BME280;10706;49.036;12.112;2023-09-18T08:52:55;97143.09;;;23.45;62.81
21096;BME280;10706;49.036;12.112;2023-09-18T08:55:21;97144.72;;;23.79;61.31
21096;BME280;10706;49.036;12.112;2023-09-18T08:57:48;97145.63;;;23.50;61.30
21096;BME280;10706;49.036;12.112;2023-09-18T09:00:15;97156.28;;;23.76;61.40
21096;BME280;10706;49.036;12.112;2023-09-18T09:02:44;97147.81;;;23.90;60.91
21096;BME280;10706;49.036;12.112;2023-09-18T09:05:11;97148.22;;;23.80;60.18
21096;BME280;10706;49.036;12.112;2023-09-18T09:07:37;97143.31;;;24.06;60.56
21096;BME280;10706;49.036;12.112;2023-09-18T09:10:04;97145.72;;;23.75;60.41
21096;BME280;10706;49.036;12.112;2023-09-18T09:12:59;97138.97;;;24.05;58.94
21096;BME280;10706;49.036;12.112;2023-09-18T09:15:33;97163.03;;;24.37;58.22
21096;BME280;10706;49.036;12.112;2023-09-18T09:18:08;97155.94;;;24.11;59.15
21096;BME280;10706;49.036;12.112;2023-09-18T09:20:36;97155.75;;;23.83;59.23
21096;BME280;10706;49.036;12.112;2023-09-18T09:23:04;97150.56;;;24.02;58.91
21096;BME280;10706;49.036;12.112;2023-09-18T09:25:32;97150.34;;;24.08;60.60
21096;BME280;10706;49.036;12.112;2023-09-18T09:28:01;97160.47;;;24.07;59.57
21096;BME280;10706;49.036;12.112;2023-09-18T09:30:29;97148.19;;;24.59;59.08
21096;BME280;10706;49.036;12.112;2023-09-18T09:32:57;97150.78;;;24.68;58.07
21096;BME280;10706;49.036;12.112;2023-09-18T09:35:34;97143.28;;;24.64;58.51
21096;BME280;10706;49.036;12.112;2023-09-18T09:38:11;97138.34;;;24.33;58.00
21096;BME280;10706;49.036;12.112;2023-09-18T09:40:41;97139.25;;;24.37;58.25
21096;BME280;10706;49.036;12.112;2023-09-18T09:43:10;97123.47;;;24.80;58.37
21096;BME280;10706;49.036;12.112;2023-09-18T09:45:36;97122.25;;;25.06;57.40
21096;BME280;10706;49.036;12.112;2023-09-18T09:48:06;97125.97;;;25.38;57.73
21096;BME280;10706;49.036;12.112;2023-09-18T09:50:33;97123.88;;;25.47;54.53
21096;BME280;10706;49.036;12.112;2023-09-18T09:53:00;97111.94;;;25.39;56.13
21096;BME280;10706;49.036;12.112;2023-09-18T09:55:28;97106.97;;;25.57;55.90
21096;BME280;10706;49.036;12.112;2023-09-18T09:58:00;97107.41;;;25.59;55.64
21096;BME280;10706;49.036;12.112;2023-09-18T10:00:31;97107.09;;;25.77;54.45
21096;BME280;10706;49.036;12.112;2023-09-18T10:03:04;97106.53;;;25.99;54.09
21096;BME280;10706;49.036;12.112;2023-09-18T10:05:38;97112.19;;;26.07;53.63
21096;BME280;10706;49.036;12.112;2023-09-18T10:08:11;97113.59;;;26.16;52.68
21096;BME280;10706;49.036;12.112;2023-09-18T10:10:47;97107.59;;;26.27;52.18
21096;BME280;10706;49.036;12.112;2023-09-18T10:16:13;97107.38;;;25.44;54.48
21096;BME280;10706;49.036;12.112;2023-09-18T10:21:41;97094.72;;;26.11;53.10
21096;BME280;10706;49.036;12.112;2023-09-18T10:24:37;97094.22;;;26.57;53.49
21096;BME280;10706;49.036;12.112;2023-09-18T10:27:06;97106.78;;;26.58;51.32
21096;BME280;10706;49.036;12.112;2023-09-18T10:29:36;97110.28;;;26.74;51.14
21096;BME280;10706;49.036;12.112;2023-09-18T10:32:06;97106.75;;;26.90;51.79
21096;BME280;10706;49.036;12.112;2023-09-18T10:34:36;97112.34;;;26.77;51.88
21096;BME280;10706;49.036;12.112;2023-09-18T10:37:04;97116.59;;;26.75;51.81
21096;BME280;10706;49.036;12.112;2023-09-18T10:39:35;97118.44;;;27.06;49.54
21096;BME280;10706;49.036;12.112;2023-09-18T10:42:03;97111.56;;;27.32;49.54
21096;BME280;10706;49.036;12.112;2023-09-18T10:44:30;97113.34;;;27.44;49.70
21096;BME280;10706;49.036;12.112;2023-09-18T10:47:01;97110.81;;;27.54;48.37
21096;BME280;10706;49.036;12.112;2023-09-18T10:49:28;97109.53;;;27.29;48.89
21096;BME280;10706;49.036;12.112;2023-09-18T10:51:55;97118.44;;;27.84;49.80
21096;BME280;10706;49.036;12.112;2023-09-18T10:54:24;97103.34;;;28.17;48.54
21096;BME280;10706;49.036;12.112;2023-09-18T10:56:51;97103.59;;;28.08;48.71
21096;BME280;10706;49.036;12.112;2023-09-18T10:59:17;97103.53;;;28.28;47.63
21096;BME280;10706;49.036;12.112;2023-09-18T11:01:44;97107.25;;;28.16;47.96
21096;BME280;10706;49.036;12.112;2023-09-18T11:04:11;97106.34;;;28.31;48.32
21096;BME280;10706;49.036;12.112;2023-09-18T11:09:22;97103.81;;;28.23;47.54
21096;BME280;10706;49.036;12.112;2023-09-18T11:12:03;97108.00;;;28.36;49.64
21096;BME280;10706;49.036;12.112;2023-09-18T11:17:39;97116.78;;;27.99;48.40
21096;BME280;10706;49.036;12.112;2023-09-18T11:20:24;97120.69;;;28.21;48.81
21096;BME280;10706;49.036;12.112;2023-09-18T11:23:16;97121.38;;;28.41;49.73
21096;BME280;10706;49.036;12.112;2023-09-18T11:25:43;97118.13;;;28.09;48.00
21096;BME280;10706;49.036;12.112;2023-09-18T11:28:15;97125.81;;;27.61;49.75
21096;BME280;10706;49.036;12.112;2023-09-18T11:30:53;97125.19;;;27.67;49.29
21096;BME280;10706;49.036;12.112;2023-09-18T11:33:40;97132.91;;;27.62;49.24
21096;BME280;10706;49.036;12.112;2023-09-18T11:36:11;97135.66;;;27.42;50.44
21096;BME280;10706;49.036;12.112;2023-09-18T11:38:58;97131.56;;;27.95;49.36
21096;BME280;10706;49.036;12.112;2023-09-18T11:41:36;97136.00;;;27.99;49.96
21096;BME280;10706;49.036;12.112;2023-09-18T11:46:49;97140.25;;;27.38;49.04
21096;BME280;10706;49.036;12.112;2023-09-18T11:49:21;97138.63;;;27.33;47.57
21096;BME280;10706;49.036;12.112;2023-09-18T11:51:48;97139.34;;;27.50;47.95
21096;BME280;10706;49.036;12.112;2023-09-18T11:54:15;97134.16;;;27.09;46.69
21096;BME280;10706;49.036;12.112;2023-09-18T11:56:41;97138.59;;;26.79;49.23
21096;BME280;10706;49.036;12.112;2023-09-18T11:59:07;97132.63;;;27.47;47.58
21096;BME280;10706;49.036;12.112;2023-09-18T12:01:34;97119.09;;;28.20;47.07
21096;BME280;10706;49.036;12.112;2023-09-18T12:04:05;97124.81;;;28.35;45.37
21096;BME280;10706;49.036;12.112;2023-09-18T12:06:35;97123.72;;;27.93;46.64
21096;BME280;10706;49.036;12.112;2023-09-18T12:09:03;97134.69;;;28.39;45.14
21096;BME280;10706;49.036;12.112;2023-09-18T12:11:29;97124.75;;;28.08;46.39
21096;BME280;10706;49.036;12.112;2023-09-18T12:13:55;97132.69;;;27.51;48.48
21096;BME280;10706;49.036;12.112;2023-09-18T12:16:21;97145.38;;;26.85;50.32
21096;BME280;10706;49.036;12.112;2023-09-18T12:18:50;97147.38;;;26.88;47.59
21096;BME280;10706;49.036;12.112;2023-09-18T12:21:17;97141.53;;;26.89;47.22
21096;BME280;10706;49.036;12.112;2023-09-18T12:23:45;97148.50;;;27.03;47.61
21096;BME280;10706;49.036;12.112;2023-09-18T12:26:13;97145.13;;;26.74;47.42
21096;BME280;10706;49.036;12.112;2023-09-18T12:28:41;97148.13;;;26.53;46.28
21096;BME280;10706;49.036;12.112;2023-09-18T12:31:15;97149.91;;;26.45;46.45
21096;BME280;10706;49.036;12.112;2023-09-18T12:33:43;97158.00;;;26.26;46.27
21096;BME280;10706;49.036;12.112;2023-09-18T12:36:19;97162.13;;;26.64;45.24
21096;BME280;10706;49.036;12.112;2023-09-18T12:38:59;97165.59;;;26.80;45.23
21096;BME280;10706;49.036;12.112;2023-09-18T12:41:26;97172.34;;;26.83;44.47
21096;BME280;10706;49.036;12.112;2023-09-18T12:43:53;97173.25;;;26.11;43.67
21096;BME280;10706;49.036;12.112;2023-09-18T12:46:19;97177.72;;;25.87;42.70
21096;BME280;10706;49.036;12.112;2023-09-18T12:48:47;97171.31;;;25.95;42.62
21096;BME280;10706;49.036;12.112;2023-09-18T12:51:14;97179.16;;;25.69;43.97
21096;BME280;10706;49.036;12.112;2023-09-18T12:53:41;97182.97;;;26.08;44.02
21096;BME280;10706;49.036;12.112;2023-09-18T12:56:12;97177.84;;;26.07;43.46
21096;BME280;10706;49.036;12.112;2023-09-18T12:58:41;97181.31;;;25.91;44.52
21096;BME280;10706;49.036;12.112;2023-09-18T13:01:09;97191.72;;;26.14;43.36
21096;BME280;10706;49.036;12.112;2023-09-18T13:03:43;97181.69;;;25.61;44.50
21096;BME280;10706;49.036;12.112;2023-09-18T13:06:18;97180.94;;;25.49;45.07
21096;BME280;10706;49.036;12.112;2023-09-18T13:08:44;97190.28;;;25.48;45.02
21096;BME280;10706;49.036;12.112;2023-09-18T13:11:10;97196.03;;;25.30;45.89
21096;BME280;10706;49.036;12.112;2023-09-18T13:13:40;97208.66;;;24.98;45.75
21096;BME280;10706;49.036;12.112;2023-09-18T13:16:08;97214.09;;;24.49;48.27
21096;BME280;10706;49.036;12.112;2023-09-18T13:18:37;97221.31;;;24.78;47.76
21096;BME280;10706;49.036;12.112;2023-09-18T13:21:11;97222.31;;;24.73;48.52
21096;BME280;10706;49.036;12.112;2023-09-18T13:23:38;97240.53;;;24.69;48.13
21096;BME280;10706;49.036;12.112;2023-09-18T13:26:05;97236.06;;;24.52;48.30
21096;BME280;10706;49.036;12.112;2023-09-18T13:28:33;97248.66;;;24.44;49.62
21096;BME280;10706;49.036;12.112;2023-09-18T13:31:05;97255.88;;;24.16;50.15
21096;BME280;10706;49.036;12.112;2023-09-18T13:33:32;97257.06;;;24.06;50.38
21096;BME280;10706;49.036;12.112;2023-09-18T13:36:57;97254.34;;;24.06;50.42
21096;BME280;10706;49.036;12.112;2023-09-18T13:39:58;97256.28;;;24.05;49.92
21096;BME280;10706;49.036;12.112;2023-09-18T13:42:55;97254.72;;;23.54;52.23
21096;BME280;10706;49.036;12.112;2023-09-18T13:45:49;97258.41;;;23.58;52.43